sensor_id;sensor_type;location;lat;lon;timestamp;P1;durP1;ratioP1;P2;durP2;ratioP2
22193;SDS011;11262;50.308;9.270;2022-12-18T00:01:35;35.17;;;16.57;;
22193;SDS011;11262;50.308;9.270;2022-12-18T00:04:05;31.10;;;15.87;;
22193;SDS011;11262;50.308;9.270;2022-12-18T00:06:34;29.30;;;15.57;;
22193;SDS011;11262;50.308;9.270;2022-12-18T00:09:01;30.43;;;16.00;;
22193;SDS011;11262;50.308;9.270;2022-12-18T00:11:28;30.50;;;16.03;;
22193;SDS011;11262;50.308;9.270;2022-12-18T00:13:56;31.13;;;15.87;;
22193;SDS011;11262;50.308;9.270;2022-12-18T00:16:23;28.93;;;15.03;;
22193;SDS011;11262;50.308;9.270;2022-12-18T00:18:51;32.43;;;17.30;;
22193;SDS011;11262;50.308;9.270;2022-12-18T00:21:19;41.17;;;18.50;;
22193;SDS011;11262;50.308;9.270;2022-12-18T00:23:45;36.37;;;18.47;;
22193;SDS011;11262;50.308;9.270;2022-12-18T00:26:16;33.07;;;16.93;;
22193;SDS011;11262;50.308;9.270;2022-12-18T00:28:50;33.97;;;17.37;;
22193;SDS011;11262;50.308;9.270;2022-12-18T00:31:18;38.50;;;16.90;;
22193;SDS011;11262;50.308;9.270;2022-12-18T00:33:45;40.07;;;19.43;;
22193;SDS011;11262;50.308;9.270;2022-12-18T00:36:21;38.57;;;19.90;;
22193;SDS011;11262;50.308;9.270;2022-12-18T00:38:48;36.60;;;19.10;;
22193;SDS011;11262;50.308;9.270;2022-12-18T00:41:14;42.43;;;18.83;;
22193;SDS011;11262;50.308;9.270;2022-12-18T00:44:01;32.37;;;16.67;;
22193;SDS011;11262;50.308;9.270;2022-12-18T00:46:27;33.50;;;17.23;;
22193;SDS011;11262;50.308;9.270;2022-12-18T00:48:53;30.50;;;16.23;;
22193;SDS011;11262;50.308;9.270;2022-12-18T00:51:19;38.03;;;16.13;;
22193;SDS011;11262;50.308;9.270;2022-12-18T00:53:44;34.43;;;17.20;;
22193;SDS011;11262;50.308;9.270;2022-12-18T00:56:10;27.53;;;15.87;;
22193;SDS011;11262;50.308;9.270;2022-12-18T00:58:36;31.67;;;16.00;;
22193;SDS011;11262;50.308;9.270;2022-12-18T01:01:03;29.40;;;16.73;;
22193;SDS011;11262;50.308;9.270;2022-12-18T01:03:29;29.23;;;15.20;;
22193;SDS011;11262;50.308;9.270;2022-12-18T01:05:55;34.67;;;16.80;;
22193;SDS011;11262;50.308;9.270;2022-12-18T01:08:21;46.47;;;20.00;;
22193;SDS011;11262;50.308;9.270;2022-12-18T01:10:47;50.63;;;23.27;;
22193;SDS011;11262;50.308;9.270;2022-12-18T01:13:13;53.47;;;20.90;;
22193;SDS011;11262;50.308;9.270;2022-12-18T01:15:49;43.87;;;18.73;;
22193;SDS011;11262;50.308;9.270;2022-12-18T01:18:15;36.87;;;17.47;;
22193;SDS011;11262;50.308;9.270;2022-12-18T01:20:40;42.27;;;17.00;;
22193;SDS011;11262;50.308;9.270;2022-12-18T01:23:06;31.50;;;16.27;;
22193;SDS011;11262;50.308;9.270;2022-12-18T01:25:31;39.03;;;17.57;;
22193;SDS011;11262;50.308;9.270;2022-12-18T01:27:58;38.50;;;16.87;;
22193;SDS011;11262;50.308;9.270;2022-12-18T01:30:23;37.70;;;15.23;;
22193;SDS011;11262;50.308;9.270;2022-12-18T01:32:49;33.57;;;16.23;;
22193;SDS011;11262;50.308;9.270;2022-12-18T01:35:15;30.83;;;15.37;;
22193;SDS011;11262;50.308;9.270;2022-12-18T01:37:40;31.60;;;15.37;;
22193;SDS011;11262;50.308;9.270;2022-12-18T01:40:06;27.73;;;14.40;;
22193;SDS011;11262;50.308;9.270;2022-12-18T01:42:32;26.33;;;13.43;;
22193;SDS011;11262;50.308;9.270;2022-12-18T01:44:59;29.53;;;14.67;;
22193;SDS011;11262;50.308;9.270;2022-12-18T01:47:39;36.00;;;15.93;;
22193;SDS011;11262;50.308;9.270;2022-12-18T01:50:15;33.10;;;16.37;;
22193;SDS011;11262;50.308;9.270;2022-12-18T01:52:43;35.93;;;16.17;;
22193;SDS011;11262;50.308;9.270;2022-12-18T01:55:12;32.80;;;16.10;;
22193;SDS011;11262;50.308;9.270;2022-12-18T01:57:39;34.50;;;16.60;;
22193;SDS011;11262;50.308;9.270;2022-12-18T02:00:17;35.53;;;15.60;;
22193;SDS011;11262;50.308;9.270;2022-12-18T02:02:45;32.83;;;15.10;;
22193;SDS011;11262;50.308;9.270;2022-12-18T02:05:12;28.97;;;14.53;;
22193;SDS011;11262;50.308;9.270;2022-12-18T02:07:54;30.47;;;14.87;;
22193;SDS011;11262;50.308;9.270;2022-12-18T02:10:41;30.90;;;15.20;;
22193;SDS011;11262;50.308;9.270;2022-12-18T02:18:59;26.00;;;14.20;;
22193;SDS011;11262;50.308;9.270;2022-12-18T02:26:46;30.27;;;14.37;;
22193;SDS011;11262;50.308;9.270;2022-12-18T02:29:23;31.63;;;14.63;;
22193;SDS011;11262;50.308;9.270;2022-12-18T02:31:53;25.77;;;13.53;;
22193;SDS011;11262;50.308;9.270;2022-12-18T02:34:32;26.13;;;14.03;;
22193;SDS011;11262;50.308;9.270;2022-12-18T02:37:02;30.40;;;14.70;;
22193;SDS011;11262;50.308;9.270;2022-12-18T02:39:30;29.47;;;14.27;;
22193;SDS011;11262;50.308;9.270;2022-12-18T02:41:58;27.93;;;13.53;;
22193;SDS011;11262;50.308;9.270;2022-12-18T02:44:26;29.00;;;13.83;;
22193;SDS011;11262;50.308;9.270;2022-12-18T02:46:52;25.60;;;14.57;;
22193;SDS011;11262;50.308;9.270;2022-12-18T02:49:36;26.50;;;14.47;;
22193;SDS011;11262;50.308;9.270;2022-12-18T03:00:20;29.67;;;14.90;;
22193;SDS011;11262;50.308;9.270;2022-12-18T03:02:55;26.23;;;14.07;;
22193;SDS011;11262;50.308;9.270;2022-12-18T03:05:37;26.80;;;13.70;;
22193;SDS011;11262;50.308;9.270;2022-12-18T03:08:12;25.80;;;13.33;;
22193;SDS011;11262;50.308;9.270;2022-12-18T03:10:48;30.27;;;14.07;;
22193;SDS011;11262;50.308;9.270;2022-12-18T03:13:20;26.40;;;13.47;;
22193;SDS011;11262;50.308;9.270;2022-12-18T03:16:09;27.17;;;13.77;;
22193;SDS011;11262;50.308;9.270;2022-12-18T03:21:06;30.33;;;13.60;;
22193;SDS011;11262;50.308;9.270;2022-12-18T03:23:35;34.77;;;13.83;;
22193;SDS011;11262;50.308;9.270;2022-12-18T03:26:07;31.17;;;12.97;;
22193;SDS011;11262;50.308;9.270;2022-12-18T03:28:36;26.17;;;13.50;;
22193;SDS011;11262;50.308;9.270;2022-12-18T03:31:07;24.30;;;12.97;;
22193;SDS011;11262;50.308;9.270;2022-12-18T03:33:39;25.23;;;13.53;;
22193;SDS011;11262;50.308;9.270;2022-12-18T03:36:10;29.47;;;14.47;;
22193;SDS011;11262;50.308;9.270;2022-12-18T03:38:36;26.07;;;13.20;;
22193;SDS011;11262;50.308;9.270;2022-12-18T03:46:33;27.30;;;13.80;;
22193;SDS011;11262;50.308;9.270;2022-12-18T03:52:30;25.57;;;13.63;;
22193;SDS011;11262;50.308;9.270;2022-12-18T03:55:03;33.40;;;14.40;;
22193;SDS011;11262;50.308;9.270;2022-12-18T03:57:31;26.13;;;13.97;;
22193;SDS011;11262;50.308;9.270;2022-12-18T04:00:02;34.03;;;15.50;;
22193;SDS011;11262;50.308;9.270;2022-12-18T04:02:30;26.27;;;14.23;;
22193;SDS011;11262;50.308;9.270;2022-12-18T04:04:59;29.70;;;15.00;;
22193;SDS011;11262;50.308;9.270;2022-12-18T04:07:29;30.37;;;14.73;;
22193;SDS011;11262;50.308;9.270;2022-12-18T04:09:55;33.97;;;14.63;;
22193;SDS011;11262;50.308;9.270;2022-12-18T04:12:24;28.10;;;14.70;;
22193;SDS011;11262;50.308;9.270;2022-12-18T04:14:51;32.23;;;14.93;;
22193;SDS011;11262;50.308;9.270;2022-12-18T04:17:17;29.70;;;15.00;;
22193;SDS011;11262;50.308;9.270;2022-12-18T04:19:43;32.10;;;14.27;;
22193;SDS011;11262;50.308;9.270;2022-12-18T04:22:09;33.23;;;16.10;;
22193;SDS011;11262;50.308;9.270;2022-12-18T04:24:35;30.60;;;14.63;;
22193;SDS011;11262;50.308;9.270;2022-12-18T04:27:01;29.33;;;14.73;;
22193;SDS011;11262;50.308;9.270;2022-12-18T04:29:27;26.07;;;14.57;;
22193;SDS011;11262;50.308;9.270;2022-12-18T04:31:53;29.00;;;14.67;;
22193;SDS011;11262;50.308;9.270;2022-12-18T04:34:19;31.50;;;15.27;;
22193;SDS011;11262;50.308;9.270;2022-12-18T04:36:45;29.87;;;14.97;;
22193;SDS011;11262;50.308;9.270;2022-12-18T04:39:11;28.53;;;15.03;;
22193;SDS011;11262;50.308;9.270;2022-12-18T04:41:36;29.73;;;14.43;;
22193;SDS011;11262;50.308;9.270;2022-12-18T04:44:02;28.27;;;15.07;;
22193;SDS011;11262;50.308;9.270;2022-12-18T04:46:28;28.53;;;15.07;;
22193;SDS011;11262;50.308;9.270;2022-12-18T04:48:53;31.37;;;14.60;;
22193;SDS011;11262;50.308;9.270;2022-12-18T04:51:19;34.17;;;17.13;;
22193;SDS011;11262;50.308;9.270;2022-12-18T04:53:45;29.93;;;16.00;;
22193;SDS011;11262;50.308;9.270;2022-12-18T04:56:11;34.20;;;15.63;;
22193;SDS011;11262;50.308;9.270;2022-12-18T04:58:39;36.13;;;16.00;;
22193;SDS011;11262;50.308;9.270;2022-12-18T05:01:06;33.87;;;15.13;;
22193;SDS011;11262;50.308;9.270;2022-12-18T05:03:34;33.80;;;16.70;;
22193;SDS011;11262;50.308;9.270;2022-12-18T05:06:00;36.47;;;17.90;;
22193;SDS011;11262;50.308;9.270;2022-12-18T05:08:25;36.43;;;17.33;;
22193;SDS011;11262;50.308;9.270;2022-12-18T05:11:01;38.67;;;18.23;;
22193;SDS011;11262;50.308;9.270;2022-12-18T05:13:29;44.67;;;18.20;;
22193;SDS011;11262;50.308;9.270;2022-12-18T05:15:55;38.03;;;16.77;;
22193;SDS011;11262;50.308;9.270;2022-12-18T05:18:21;37.33;;;15.83;;
22193;SDS011;11262;50.308;9.270;2022-12-18T05:20:51;47.03;;;19.67;;
22193;SDS011;11262;50.308;9.270;2022-12-18T05:23:17;57.57;;;22.87;;
22193;SDS011;11262;50.308;9.270;2022-12-18T05:25:46;58.13;;;25.43;;
22193;SDS011;11262;50.308;9.270;2022-12-18T05:28:18;58.37;;;21.77;;
22193;SDS011;11262;50.308;9.270;2022-12-18T05:30:48;34.77;;;16.30;;
22193;SDS011;11262;50.308;9.270;2022-12-18T05:33:15;34.90;;;16.37;;
22193;SDS011;11262;50.308;9.270;2022-12-18T05:35:40;36.47;;;16.57;;
22193;SDS011;11262;50.308;9.270;2022-12-18T05:38:06;30.87;;;16.33;;
22193;SDS011;11262;50.308;9.270;2022-12-18T05:40:31;31.97;;;16.17;;
22193;SDS011;11262;50.308;9.270;2022-12-18T05:42:57;32.13;;;15.13;;
22193;SDS011;11262;50.308;9.270;2022-12-18T05:45:22;36.30;;;17.20;;
22193;SDS011;11262;50.308;9.270;2022-12-18T05:47:48;33.10;;;15.37;;
22193;SDS011;11262;50.308;9.270;2022-12-18T05:50:14;34.13;;;16.17;;
22193;SDS011;11262;50.308;9.270;2022-12-18T05:52:39;31.63;;;17.00;;
22193;SDS011;11262;50.308;9.270;2022-12-18T05:55:05;31.40;;;15.57;;
22193;SDS011;11262;50.308;9.270;2022-12-18T05:57:31;31.90;;;16.87;;
22193;SDS011;11262;50.308;9.270;2022-12-18T05:59:56;38.30;;;16.90;;
22193;SDS011;11262;50.308;9.270;2022-12-18T06:02:22;31.77;;;15.60;;
22193;SDS011;11262;50.308;9.270;2022-12-18T06:04:47;33.47;;;16.50;;
22193;SDS011;11262;50.308;9.270;2022-12-18T06:07:13;33.23;;;16.60;;
22193;SDS011;11262;50.308;9.270;2022-12-18T06:09:39;29.43;;;14.20;;
22193;SDS011;11262;50.308;9.270;2022-12-18T06:12:04;31.60;;;15.43;;
22193;SDS011;11262;50.308;9.270;2022-12-18T06:14:31;34.67;;;15.97;;
22193;SDS011;11262;50.308;9.270;2022-12-18T06:16:56;34.53;;;16.07;;
22193;SDS011;11262;50.308;9.270;2022-12-18T06:19:22;35.27;;;15.27;;
22193;SDS011;11262;50.308;9.270;2022-12-18T06:21:48;32.70;;;15.83;;
22193;SDS011;11262;50.308;9.270;2022-12-18T06:24:14;35.20;;;16.00;;
22193;SDS011;11262;50.308;9.270;2022-12-18T06:26:39;36.10;;;17.30;;
22193;SDS011;11262;50.308;9.270;2022-12-18T06:29:05;27.27;;;13.70;;
22193;SDS011;11262;50.308;9.270;2022-12-18T06:31:31;32.63;;;16.07;;
22193;SDS011;11262;50.308;9.270;2022-12-18T06:33:56;31.07;;;15.50;;
22193;SDS011;11262;50.308;9.270;2022-12-18T06:36:22;30.47;;;14.93;;
22193;SDS011;11262;50.308;9.270;2022-12-18T06:38:48;28.50;;;15.57;;
22193;SDS011;11262;50.308;9.270;2022-12-18T06:41:15;32.03;;;15.37;;
22193;SDS011;11262;50.308;9.270;2022-12-18T06:43:43;34.33;;;14.90;;
22193;SDS011;11262;50.308;9.270;2022-12-18T06:46:09;32.47;;;15.23;;
22193;SDS011;11262;50.308;9.270;2022-12-18T06:48:35;32.53;;;14.90;;
22193;SDS011;11262;50.308;9.270;2022-12-18T06:51:01;33.73;;;15.57;;
22193;SDS011;11262;50.308;9.270;2022-12-18T06:53:27;28.47;;;13.50;;
22193;SDS011;11262;50.308;9.270;2022-12-18T06:55:58;28.57;;;14.50;;
22193;SDS011;11262;50.308;9.270;2022-12-18T06:58:28;29.17;;;13.67;;
22193;SDS011;11262;50.308;9.270;2022-12-18T07:00:58;27.47;;;14.07;;
22193;SDS011;11262;50.308;9.270;2022-12-18T07:03:25;31.17;;;16.17;;
22193;SDS011;11262;50.308;9.270;2022-12-18T07:05:50;30.67;;;15.07;;
22193;SDS011;11262;50.308;9.270;2022-12-18T07:08:16;35.37;;;16.30;;
22193;SDS011;11262;50.308;9.270;2022-12-18T07:10:42;26.07;;;13.83;;
22193;SDS011;11262;50.308;9.270;2022-12-18T07:13:08;29.23;;;14.40;;
22193;SDS011;11262;50.308;9.270;2022-12-18T07:15:34;29.23;;;13.50;;
22193;SDS011;11262;50.308;9.270;2022-12-18T07:17:59;30.47;;;14.13;;
22193;SDS011;11262;50.308;9.270;2022-12-18T07:20:25;33.77;;;14.63;;
22193;SDS011;11262;50.308;9.270;2022-12-18T07:22:50;34.20;;;14.03;;
22193;SDS011;11262;50.308;9.270;2022-12-18T07:25:16;33.17;;;13.60;;
22193;SDS011;11262;50.308;9.270;2022-12-18T07:27:41;25.03;;;12.80;;
22193;SDS011;11262;50.308;9.270;2022-12-18T07:30:07;34.87;;;14.53;;
22193;SDS011;11262;50.308;9.270;2022-12-18T07:32:33;28.83;;;13.87;;
22193;SDS011;11262;50.308;9.270;2022-12-18T07:34:59;34.00;;;15.27;;
22193;SDS011;11262;50.308;9.270;2022-12-18T07:37:25;30.37;;;15.10;;
22193;SDS011;11262;50.308;9.270;2022-12-18T07:39:50;36.10;;;14.93;;
22193;SDS011;11262;50.308;9.270;2022-12-18T07:42:16;32.80;;;14.80;;
22193;SDS011;11262;50.308;9.270;2022-12-18T07:44:59;32.70;;;14.13;;
22193;SDS011;11262;50.308;9.270;2022-12-18T07:47:26;27.57;;;13.67;;
22193;SDS011;11262;50.308;9.270;2022-12-18T07:50:06;32.93;;;14.73;;
22193;SDS011;11262;50.308;9.270;2022-12-18T07:52:32;30.53;;;15.50;;
22193;SDS011;11262;50.308;9.270;2022-12-18T07:54:57;29.20;;;14.00;;
22193;SDS011;11262;50.308;9.270;2022-12-18T07:57:23;33.03;;;15.23;;
22193;SDS011;11262;50.308;9.270;2022-12-18T07:59:48;28.30;;;14.10;;
22193;SDS011;11262;50.308;9.270;2022-12-18T08:02:14;28.10;;;14.20;;
22193;SDS011;11262;50.308;9.270;2022-12-18T08:04:40;28.63;;;14.90;;
22193;SDS011;11262;50.308;9.270;2022-12-18T08:07:05;28.70;;;15.00;;
22193;SDS011;11262;50.308;9.270;2022-12-18T08:09:31;28.07;;;14.17;;
22193;SDS011;11262;50.308;9.270;2022-12-18T08:11:56;30.17;;;14.13;;
22193;SDS011;11262;50.308;9.270;2022-12-18T08:14:22;32.63;;;15.37;;
22193;SDS011;11262;50.308;9.270;2022-12-18T08:16:48;30.93;;;14.43;;
22193;SDS011;11262;50.308;9.270;2022-12-18T08:19:13;32.20;;;15.23;;
22193;SDS011;11262;50.308;9.270;2022-12-18T08:21:41;29.23;;;14.20;;
22193;SDS011;11262;50.308;9.270;2022-12-18T08:24:08;31.80;;;14.87;;
22193;SDS011;11262;50.308;9.270;2022-12-18T08:26:34;31.00;;;16.27;;
22193;SDS011;11262;50.308;9.270;2022-12-18T08:29:00;30.80;;;15.10;;
22193;SDS011;11262;50.308;9.270;2022-12-18T08:31:26;34.50;;;16.83;;
22193;SDS011;11262;50.308;9.270;2022-12-18T08:33:53;29.10;;;15.33;;
22193;SDS011;11262;50.308;9.270;2022-12-18T08:36:19;33.00;;;15.73;;
22193;SDS011;11262;50.308;9.270;2022-12-18T08:38:46;33.10;;;15.67;;
22193;SDS011;11262;50.308;9.270;2022-12-18T08:41:12;34.70;;;16.93;;
22193;SDS011;11262;50.308;9.270;2022-12-18T08:43:39;34.43;;;17.53;;
22193;SDS011;11262;50.308;9.270;2022-12-18T08:46:32;37.80;;;17.10;;
22193;SDS011;11262;50.308;9.270;2022-12-18T08:49:02;30.70;;;15.17;;
22193;SDS011;11262;50.308;9.270;2022-12-18T08:51:28;33.70;;;15.37;;
22193;SDS011;11262;50.308;9.270;2022-12-18T08:53:54;34.70;;;15.67;;
22193;SDS011;11262;50.308;9.270;2022-12-18T08:56:20;33.00;;;15.50;;
22193;SDS011;11262;50.308;9.270;2022-12-18T08:58:45;34.53;;;15.90;;
22193;SDS011;11262;50.308;9.270;2022-12-18T09:01:12;32.33;;;14.27;;
22193;SDS011;11262;50.308;9.270;2022-12-18T09:03:38;35.80;;;18.02;;
22193;SDS011;11262;50.308;9.270;2022-12-18T09:06:04;34.63;;;15.77;;
22193;SDS011;11262;50.308;9.270;2022-12-18T09:08:34;33.53;;;15.87;;
22193;SDS011;11262;50.308;9.270;2022-12-18T09:10:59;30.93;;;15.67;;
22193;SDS011;11262;50.308;9.270;2022-12-18T09:13:25;37.00;;;17.60;;
22193;SDS011;11262;50.308;9.270;2022-12-18T09:15:51;42.90;;;18.83;;
22193;SDS011;11262;50.308;9.270;2022-12-18T09:18:20;35.20;;;16.40;;
22193;SDS011;11262;50.308;9.270;2022-12-18T09:20:46;32.87;;;16.40;;
22193;SDS011;11262;50.308;9.270;2022-12-18T09:23:12;36.47;;;16.30;;
22193;SDS011;11262;50.308;9.270;2022-12-18T09:25:38;33.53;;;16.17;;
22193;SDS011;11262;50.308;9.270;2022-12-18T09:28:05;31.80;;;15.60;;
22193;SDS011;11262;50.308;9.270;2022-12-18T09:30:37;38.10;;;16.77;;
22193;SDS011;11262;50.308;9.270;2022-12-18T09:33:07;36.23;;;18.40;;
22193;SDS011;11262;50.308;9.270;2022-12-18T09:35:35;36.83;;;16.30;;
22193;SDS011;11262;50.308;9.270;2022-12-18T09:38:06;31.37;;;16.87;;
22193;SDS011;11262;50.308;9.270;2022-12-18T09:40:40;34.00;;;15.07;;
22193;SDS011;11262;50.308;9.270;2022-12-18T09:43:12;31.97;;;16.63;;
22193;SDS011;11262;50.308;9.270;2022-12-18T09:45:44;36.20;;;17.17;;
22193;SDS011;11262;50.308;9.270;2022-12-18T09:48:34;38.03;;;17.40;;
22193;SDS011;11262;50.308;9.270;2022-12-18T09:51:18;32.47;;;15.17;;
22193;SDS011;11262;50.308;9.270;2022-12-18T09:54:51;28.33;;;15.37;;
22193;SDS011;11262;50.308;9.270;2022-12-18T09:57:00;33.13;;;15.53;;
22193;SDS011;11262;50.308;9.270;2022-12-18T09:59:29;36.07;;;15.70;;
22193;SDS011;11262;50.308;9.270;2022-12-18T10:01:58;33.27;;;16.50;;
22193;SDS011;11262;50.308;9.270;2022-12-18T10:04:32;33.77;;;16.07;;
22193;SDS011;11262;50.308;9.270;2022-12-18T10:07:00;31.40;;;15.60;;
22193;SDS011;11262;50.308;9.270;2022-12-18T10:12:40;35.27;;;15.97;;
22193;SDS011;11262;50.308;9.270;2022-12-18T10:15:31;33.93;;;17.03;;
22193;SDS011;11262;50.308;9.270;2022-12-18T10:18:16;33.10;;;16.47;;
22193;SDS011;11262;50.308;9.270;2022-12-18T10:20:57;33.67;;;16.63;;
22193;SDS011;11262;50.308;9.270;2022-12-18T10:26:33;36.13;;;17.47;;
22193;SDS011;11262;50.308;9.270;2022-12-18T10:28:59;37.97;;;19.00;;
22193;SDS011;11262;50.308;9.270;2022-12-18T10:31:25;37.10;;;17.20;;
22193;SDS011;11262;50.308;9.270;2022-12-18T10:33:50;33.07;;;16.93;;
22193;SDS011;11262;50.308;9.270;2022-12-18T10:36:18;34.27;;;16.93;;
22193;SDS011;11262;50.308;9.270;2022-12-18T10:38:44;34.77;;;18.23;;
22193;SDS011;11262;50.308;9.270;2022-12-18T10:44:10;36.67;;;17.20;;
22193;SDS011;11262;50.308;9.270;2022-12-18T10:46:36;37.00;;;17.77;;
22193;SDS011;11262;50.308;9.270;2022-12-18T10:49:02;33.97;;;16.87;;
22193;SDS011;11262;50.308;9.270;2022-12-18T10:51:28;34.50;;;16.83;;
22193;SDS011;11262;50.308;9.270;2022-12-18T10:54:00;38.23;;;17.40;;
22193;SDS011;11262;50.308;9.270;2022-12-18T10:56:29;36.53;;;16.87;;
22193;SDS011;11262;50.308;9.270;2022-12-18T11:04:27;35.17;;;17.07;;
22193;SDS011;11262;50.308;9.270;2022-12-18T11:06:55;34.13;;;17.47;;
22193;SDS011;11262;50.308;9.270;2022-12-18T11:09:24;39.83;;;18.43;;
22193;SDS011;11262;50.308;9.270;2022-12-18T11:12:01;34.17;;;17.40;;
22193;SDS011;11262;50.308;9.270;2022-12-18T11:17:21;39.27;;;18.20;;
22193;SDS011;11262;50.308;9.270;2022-12-18T11:19:53;34.47;;;17.23;;
22193;SDS011;11262;50.308;9.270;2022-12-18T11:22:28;38.00;;;17.47;;
22193;SDS011;11262;50.308;9.270;2022-12-18T11:25:00;38.43;;;18.33;;
22193;SDS011;11262;50.308;9.270;2022-12-18T11:27:29;38.10;;;16.77;;
22193;SDS011;11262;50.308;9.270;2022-12-18T11:30:40;39.73;;;17.67;;
22193;SDS011;11262;50.308;9.270;2022-12-18T11:33:05;35.53;;;17.80;;
22193;SDS011;11262;50.308;9.270;2022-12-18T11:38:24;38.20;;;17.13;;
22193;SDS011;11262;50.308;9.270;2022-12-18T11:49:47;37.87;;;18.23;;
22193;SDS011;11262;50.308;9.270;2022-12-18T11:52:16;44.53;;;19.40;;
22193;SDS011;11262;50.308;9.270;2022-12-18T11:54:55;43.00;;;19.73;;
22193;SDS011;11262;50.308;9.270;2022-12-18T11:57:28;42.20;;;19.03;;
22193;SDS011;11262;50.308;9.270;2022-12-18T12:00:12;42.13;;;19.30;;
22193;SDS011;11262;50.308;9.270;2022-12-18T12:05:47;48.43;;;20.80;;
22193;SDS011;11262;50.308;9.270;2022-12-18T12:08:18;42.33;;;17.73;;
22193;SDS011;11262;50.308;9.270;2022-12-18T12:16:24;45.77;;;19.50;;
22193;SDS011;11262;50.308;9.270;2022-12-18T12:21:26;44.93;;;20.70;;
22193;SDS011;11262;50.308;9.270;2022-12-18T12:29:47;44.27;;;20.27;;
22193;SDS011;11262;50.308;9.270;2022-12-18T12:35:18;42.73;;;19.27;;
22193;SDS011;11262;50.308;9.270;2022-12-18T12:38:05;40.10;;;17.70;;
22193;SDS011;11262;50.308;9.270;2022-12-18T12:40:39;42.83;;;19.07;;
22193;SDS011;11262;50.308;9.270;2022-12-18T12:45:54;44.13;;;20.33;;
22193;SDS011;11262;50.308;9.270;2022-12-18T12:48:44;45.33;;;19.17;;
22193;SDS011;11262;50.308;9.270;2022-12-18T12:51:18;41.47;;;19.37;;
22193;SDS011;11262;50.308;9.270;2022-12-18T12:53:47;57.20;;;26.10;;
22193;SDS011;11262;50.308;9.270;2022-12-18T12:56:15;46.23;;;21.43;;
22193;SDS011;11262;50.308;9.270;2022-12-18T13:01:37;48.17;;;20.70;;
22193;SDS011;11262;50.308;9.270;2022-12-18T13:04:18;39.00;;;18.57;;
22193;SDS011;11262;50.308;9.270;2022-12-18T13:07:39;45.83;;;18.83;;
22193;SDS011;11262;50.308;9.270;2022-12-18T13:15:31;49.80;;;19.73;;
22193;SDS011;11262;50.308;9.270;2022-12-18T13:20:34;42.63;;;19.87;;
22193;SDS011;11262;50.308;9.270;2022-12-18T13:23:19;46.93;;;20.53;;
22193;SDS011;11262;50.308;9.270;2022-12-18T13:31:12;54.00;;;26.38;;
22193;SDS011;11262;50.308;9.270;2022-12-18T13:33:43;50.23;;;21.07;;
22193;SDS011;11262;50.308;9.270;2022-12-18T13:38:39;55.67;;;25.60;;
22193;SDS011;11262;50.308;9.270;2022-12-18T13:46:27;48.53;;;21.00;;
22193;SDS011;11262;50.308;9.270;2022-12-18T13:51:44;45.70;;;20.20;;
22193;SDS011;11262;50.308;9.270;2022-12-18T13:56:45;41.73;;;19.00;;
22193;SDS011;11262;50.308;9.270;2022-12-18T14:01:56;50.63;;;21.10;;
22193;SDS011;11262;50.308;9.270;2022-12-18T14:04:27;47.20;;;20.10;;
22193;SDS011;11262;50.308;9.270;2022-12-18T14:07:03;45.57;;;18.67;;
22193;SDS011;11262;50.308;9.270;2022-12-18T14:09:30;45.50;;;19.83;;
22193;SDS011;11262;50.308;9.270;2022-12-18T14:12:00;51.50;;;21.23;;
22193;SDS011;11262;50.308;9.270;2022-12-18T14:14:46;49.60;;;19.20;;
22193;SDS011;11262;50.308;9.270;2022-12-18T14:17:13;51.23;;;21.27;;
22193;SDS011;11262;50.308;9.270;2022-12-18T14:19:41;45.47;;;19.67;;
22193;SDS011;11262;50.308;9.270;2022-12-18T14:22:16;44.53;;;21.17;;
22193;SDS011;11262;50.308;9.270;2022-12-18T14:24:44;49.07;;;22.70;;
22193;SDS011;11262;50.308;9.270;2022-12-18T14:27:23;43.08;;;18.38;;
22193;SDS011;11262;50.308;9.270;2022-12-18T14:29:50;46.40;;;20.27;;
22193;SDS011;11262;50.308;9.270;2022-12-18T14:32:17;50.37;;;22.40;;
22193;SDS011;11262;50.308;9.270;2022-12-18T14:34:51;49.53;;;22.13;;
22193;SDS011;11262;50.308;9.270;2022-12-18T14:37:23;51.73;;;21.37;;
22193;SDS011;11262;50.308;9.270;2022-12-18T14:39:54;48.37;;;18.97;;
22193;SDS011;11262;50.308;9.270;2022-12-18T14:42:20;48.40;;;20.93;;
22193;SDS011;11262;50.308;9.270;2022-12-18T14:44:45;54.55;;;25.00;;
22193;SDS011;11262;50.308;9.270;2022-12-18T14:47:15;47.83;;;20.90;;
22193;SDS011;11262;50.308;9.270;2022-12-18T14:49:41;45.60;;;20.10;;
22193;SDS011;11262;50.308;9.270;2022-12-18T14:52:24;46.40;;;21.07;;
22193;SDS011;11262;50.308;9.270;2022-12-18T14:54:54;45.43;;;20.67;;
22193;SDS011;11262;50.308;9.270;2022-12-18T14:57:29;47.53;;;21.67;;
22193;SDS011;11262;50.308;9.270;2022-12-18T15:00:07;54.27;;;22.33;;
22193;SDS011;11262;50.308;9.270;2022-12-18T15:02:45;47.40;;;21.73;;
22193;SDS011;11262;50.308;9.270;2022-12-18T15:07:45;51.63;;;21.53;;
22193;SDS011;11262;50.308;9.270;2022-12-18T15:12:46;47.50;;;22.33;;
22193;SDS011;11262;50.308;9.270;2022-12-18T15:23:16;52.70;;;21.60;;
22193;SDS011;11262;50.308;9.270;2022-12-18T15:25:45;53.37;;;21.73;;
22193;SDS011;11262;50.308;9.270;2022-12-18T15:28:15;49.57;;;21.50;;
22193;SDS011;11262;50.308;9.270;2022-12-18T15:36:17;58.90;;;23.13;;
22193;SDS011;11262;50.308;9.270;2022-12-18T15:38:48;48.10;;;19.73;;
22193;SDS011;11262;50.308;9.270;2022-12-18T15:41:18;46.97;;;22.50;;
22193;SDS011;11262;50.308;9.270;2022-12-18T15:43:46;47.47;;;19.17;;
22193;SDS011;11262;50.308;9.270;2022-12-18T15:48:47;45.53;;;20.17;;
22193;SDS011;11262;50.308;9.270;2022-12-18T15:53:41;52.43;;;23.60;;
22193;SDS011;11262;50.308;9.270;2022-12-18T15:56:09;46.60;;;19.77;;
22193;SDS011;11262;50.308;9.270;2022-12-18T15:58:54;49.13;;;18.83;;
22193;SDS011;11262;50.308;9.270;2022-12-18T16:01:20;46.90;;;21.47;;
22193;SDS011;11262;50.308;9.270;2022-12-18T16:03:47;48.93;;;22.23;;
22193;SDS011;11262;50.308;9.270;2022-12-18T16:06:13;56.70;;;22.00;;
22193;SDS011;11262;50.308;9.270;2022-12-18T16:08:38;53.00;;;24.10;;
22193;SDS011;11262;50.308;9.270;2022-12-18T16:11:04;51.13;;;22.57;;
22193;SDS011;11262;50.308;9.270;2022-12-18T16:13:30;59.20;;;23.17;;
22193;SDS011;11262;50.308;9.270;2022-12-18T16:15:56;52.87;;;21.70;;
22193;SDS011;11262;50.308;9.270;2022-12-18T16:18:22;52.67;;;21.57;;
22193;SDS011;11262;50.308;9.270;2022-12-18T16:20:48;41.37;;;18.70;;
22193;SDS011;11262;50.308;9.270;2022-12-18T16:23:13;51.57;;;23.07;;
22193;SDS011;11262;50.308;9.270;2022-12-18T16:25:39;59.53;;;23.77;;
22193;SDS011;11262;50.308;9.270;2022-12-18T16:28:04;49.50;;;21.07;;
22193;SDS011;11262;50.308;9.270;2022-12-18T16:30:30;48.43;;;21.20;;
22193;SDS011;11262;50.308;9.270;2022-12-18T16:32:59;46.93;;;20.53;;
22193;SDS011;11262;50.308;9.270;2022-12-18T16:35:25;47.30;;;19.57;;
22193;SDS011;11262;50.308;9.270;2022-12-18T16:37:52;49.93;;;23.07;;
22193;SDS011;11262;50.308;9.270;2022-12-18T16:40:17;47.30;;;21.23;;
22193;SDS011;11262;50.308;9.270;2022-12-18T16:42:44;49.53;;;22.10;;
22193;SDS011;11262;50.308;9.270;2022-12-18T16:45:11;49.30;;;22.33;;
22193;SDS011;11262;50.308;9.270;2022-12-18T16:47:40;47.73;;;23.03;;
22193;SDS011;11262;50.308;9.270;2022-12-18T16:50:06;53.23;;;23.40;;
22193;SDS011;11262;50.308;9.270;2022-12-18T16:52:33;54.40;;;23.07;;